Kansas City, Missouri
Traffic Map
Current Weather Conditions
Kansas City, Missouri
Overcast Light Rain
Overcast
65°
Feels Like: 65°
Wind Chill: 65° Ceiling: 8000
Heat Index: 65° Visibility: 10mi
Dew Point: 51° Wind: 15mph
Humidity: 61% Direction: 200° (SSW)
Pressure: 29.85in Gusts: 0mph
Raw Report DataKMKC 241554Z 20013KT 10SM -RA FEW050 OVC080 18/11 A2985 RMK AO2 PK WND 20027/1544 LTG DSNT N AND NW RAB43 SLP103 P0000 T01830106
Traffic Incident Summary
Active as of:
Severity:
Category:
InformationThere was an issue retrieving the traffic information for this location. Please try a different location or try again shortly.
Advertisements
Track Severe Weather on mobile